EGAC/BHD METAR and TAF weather

Enter ICAO airport designator
Station Type Date Time Source
EGAC METAR 2020/01/24 15:50 UTC NOAA

EGAC 241550Z AUTO 21009KT 9999 BKN010/// OVC033/// 08/07 Q1019


Station Type Date Time Source
EGAC Decoded METAR 2020/01/24 15:50 UTC NOAA

Belfast / Harbour, United Kingdom (EGAC) 54-36N 005-53W 0M
Jan 24, 2020 - 10:50 AM EST / 2020.01.24 1550 UTC
Wind: from the SSW (210 degrees) at 10 MPH (9 KT):0
Visibility: greater than 7 mile(s):0
Sky conditions: overcast
Temperature: 46 F (8 C)
Dew Point: 44 F (7 C)
Relative Humidity: 93%
Pressure (altimeter): 30.09 in. Hg (1019 hPa)
ob: EGAC 241550Z AUTO 21009KT 9999 BKN010/// OVC033/// 08/07 Q1019
cycle: 16

Station Type Date Time Source
EGAC TAF UTC NOAA

Error!

Example: see airport list